sensor_id;sensor_type;location;lat;lon;timestamp;P1;durP1;ratioP1;P2;durP2;ratioP2
12768;SDS011;6448;48.916;8.990;2023-03-12T00:00:42;3.50;;;3.20;;
12768;SDS011;6448;48.916;8.990;2023-03-12T00:01:44;4.43;;;2.97;;
12768;SDS011;6448;48.916;8.990;2023-03-12T00:02:46;2.85;;;2.65;;
12768;SDS011;6448;48.916;8.990;2023-03-12T00:03:47;3.10;;;2.50;;
12768;SDS011;6448;48.916;8.990;2023-03-12T00:04:49;2.53;;;2.28;;
12768;SDS011;6448;48.916;8.990;2023-03-12T00:05:50;2.45;;;2.25;;
12768;SDS011;6448;48.916;8.990;2023-03-12T00:06:52;2.40;;;2.20;;
12768;SDS011;6448;48.916;8.990;2023-03-12T00:07:53;2.28;;;1.90;;
12768;SDS011;6448;48.916;8.990;2023-03-12T00:08:58;1.95;;;1.75;;
12768;SDS011;6448;48.916;8.990;2023-03-12T00:10:01;2.00;;;1.80;;
12768;SDS011;6448;48.916;8.990;2023-03-12T00:11:06;3.20;;;1.80;;
12768;SDS011;6448;48.916;8.990;2023-03-12T00:12:08;2.30;;;1.90;;
12768;SDS011;6448;48.916;8.990;2023-03-12T00:13:10;1.90;;;1.70;;
12768;SDS011;6448;48.916;8.990;2023-03-12T00:14:10;1.80;;;1.70;;
12768;SDS011;6448;48.916;8.990;2023-03-12T00:15:12;1.80;;;1.70;;
12768;SDS011;6448;48.916;8.990;2023-03-12T00:16:14;2.00;;;1.80;;
12768;SDS011;6448;48.916;8.990;2023-03-12T00:17:17;2.00;;;1.80;;
12768;SDS011;6448;48.916;8.990;2023-03-12T00:18:18;3.10;;;2.35;;
12768;SDS011;6448;48.916;8.990;2023-03-12T00:19:20;3.38;;;2.92;;
12768;SDS011;6448;48.916;8.990;2023-03-12T00:20:21;3.85;;;3.20;;
12768;SDS011;6448;48.916;8.990;2023-03-12T00:21:22;3.20;;;2.78;;
12768;SDS011;6448;48.916;8.990;2023-03-12T00:22:24;3.00;;;2.65;;
12768;SDS011;6448;48.916;8.990;2023-03-12T00:23:26;3.30;;;2.80;;
12768;SDS011;6448;48.916;8.990;2023-03-12T00:24:27;2.90;;;2.40;;
12768;SDS011;6448;48.916;8.990;2023-03-12T00:25:28;2.95;;;2.45;;
12768;SDS011;6448;48.916;8.990;2023-03-12T00:26:29;2.40;;;2.20;;
12768;SDS011;6448;48.916;8.990;2023-03-12T00:27:31;2.03;;;1.83;;
12768;SDS011;6448;48.916;8.990;2023-03-12T00:28:32;2.38;;;1.85;;
12768;SDS011;6448;48.916;8.990;2023-03-12T00:29:35;2.37;;;1.87;;
12768;SDS011;6448;48.916;8.990;2023-03-12T00:30:35;1.88;;;1.70;;
12768;SDS011;6448;48.916;8.990;2023-03-12T00:31:37;1.95;;;1.70;;
12768;SDS011;6448;48.916;8.990;2023-03-12T00:32:39;1.83;;;1.73;;
12768;SDS011;6448;48.916;8.990;2023-03-12T00:33:41;2.13;;;1.88;;
12768;SDS011;6448;48.916;8.990;2023-03-12T00:34:42;2.40;;;1.75;;
12768;SDS011;6448;48.916;8.990;2023-03-12T00:35:44;1.90;;;1.70;;
12768;SDS011;6448;48.916;8.990;2023-03-12T00:36:45;1.95;;;1.60;;
12768;SDS011;6448;48.916;8.990;2023-03-12T00:37:47;1.70;;;1.60;;
12768;SDS011;6448;48.916;8.990;2023-03-12T00:38:48;1.90;;;1.70;;
12768;SDS011;6448;48.916;8.990;2023-03-12T00:39:50;1.73;;;1.50;;
12768;SDS011;6448;48.916;8.990;2023-03-12T00:40:51;2.35;;;1.90;;
12768;SDS011;6448;48.916;8.990;2023-03-12T00:41:52;2.75;;;1.80;;
12768;SDS011;6448;48.916;8.990;2023-03-12T00:42:54;2.10;;;1.70;;
12768;SDS011;6448;48.916;8.990;2023-03-12T00:43:55;1.95;;;1.70;;
12768;SDS011;6448;48.916;8.990;2023-03-12T00:44:57;2.20;;;1.90;;
12768;SDS011;6448;48.916;8.990;2023-03-12T00:45:58;1.80;;;1.70;;
12768;SDS011;6448;48.916;8.990;2023-03-12T00:46:59;1.95;;;1.75;;
12768;SDS011;6448;48.916;8.990;2023-03-12T00:48:01;2.38;;;1.85;;
12768;SDS011;6448;48.916;8.990;2023-03-12T00:49:03;1.80;;;1.70;;
12768;SDS011;6448;48.916;8.990;2023-03-12T00:50:04;1.92;;;1.70;;
12768;SDS011;6448;48.916;8.990;2023-03-12T00:51:07;2.08;;;1.88;;
12768;SDS011;6448;48.916;8.990;2023-03-12T00:52:08;1.75;;;1.58;;
12768;SDS011;6448;48.916;8.990;2023-03-12T00:53:10;2.20;;;1.80;;
12768;SDS011;6448;48.916;8.990;2023-03-12T00:54:10;2.15;;;1.77;;
12768;SDS011;6448;48.916;8.990;2023-03-12T00:55:15;2.30;;;1.70;;
12768;SDS011;6448;48.916;8.990;2023-03-12T00:56:16;2.13;;;1.88;;
12768;SDS011;6448;48.916;8.990;2023-03-12T00:57:17;2.53;;;1.70;;
12768;SDS011;6448;48.916;8.990;2023-03-12T00:58:18;2.00;;;1.80;;
12768;SDS011;6448;48.916;8.990;2023-03-12T00:59:20;1.90;;;1.70;;
12768;SDS011;6448;48.916;8.990;2023-03-12T01:00:21;1.90;;;1.60;;
12768;SDS011;6448;48.916;8.990;2023-03-12T01:01:23;2.05;;;1.75;;
12768;SDS011;6448;48.916;8.990;2023-03-12T01:02:24;2.28;;;1.80;;
12768;SDS011;6448;48.916;8.990;2023-03-12T01:03:27;2.17;;;1.98;;
12768;SDS011;6448;48.916;8.990;2023-03-12T01:04:28;1.92;;;1.80;;
12768;SDS011;6448;48.916;8.990;2023-03-12T01:05:30;1.98;;;1.77;;
12768;SDS011;6448;48.916;8.990;2023-03-12T01:06:31;2.67;;;1.90;;
12768;SDS011;6448;48.916;8.990;2023-03-12T01:07:33;2.05;;;1.80;;
12768;SDS011;6448;48.916;8.990;2023-03-12T01:08:35;2.27;;;2.00;;
12768;SDS011;6448;48.916;8.990;2023-03-12T01:09:37;2.50;;;1.75;;
12768;SDS011;6448;48.916;8.990;2023-03-12T01:10:40;2.40;;;1.83;;
12768;SDS011;6448;48.916;8.990;2023-03-12T01:11:42;2.15;;;1.73;;
12768;SDS011;6448;48.916;8.990;2023-03-12T01:12:43;2.00;;;1.80;;
12768;SDS011;6448;48.916;8.990;2023-03-12T01:13:45;2.20;;;1.70;;
12768;SDS011;6448;48.916;8.990;2023-03-12T01:14:46;1.92;;;1.67;;
12768;SDS011;6448;48.916;8.990;2023-03-12T01:15:48;1.98;;;1.73;;
12768;SDS011;6448;48.916;8.990;2023-03-12T01:16:49;2.13;;;1.92;;
12768;SDS011;6448;48.916;8.990;2023-03-12T01:17:51;2.53;;;2.20;;
12768;SDS011;6448;48.916;8.990;2023-03-12T01:18:53;2.50;;;2.03;;
12768;SDS011;6448;48.916;8.990;2023-03-12T01:19:55;2.42;;;1.90;;
12768;SDS011;6448;48.916;8.990;2023-03-12T01:20:56;2.45;;;2.20;;
12768;SDS011;6448;48.916;8.990;2023-03-12T01:21:58;2.30;;;2.10;;
12768;SDS011;6448;48.916;8.990;2023-03-12T01:22:59;2.50;;;2.30;;
12768;SDS011;6448;48.916;8.990;2023-03-12T01:24:01;2.80;;;2.28;;
12768;SDS011;6448;48.916;8.990;2023-03-12T01:25:02;2.45;;;2.25;;
12768;SDS011;6448;48.916;8.990;2023-03-12T01:26:05;2.95;;;2.65;;
12768;SDS011;6448;48.916;8.990;2023-03-12T01:27:05;3.55;;;3.00;;
12768;SDS011;6448;48.916;8.990;2023-03-12T01:28:07;2.70;;;2.20;;
12768;SDS011;6448;48.916;8.990;2023-03-12T01:29:08;2.65;;;2.30;;
12768;SDS011;6448;48.916;8.990;2023-03-12T01:30:10;2.20;;;2.00;;
12768;SDS011;6448;48.916;8.990;2023-03-12T01:31:12;2.53;;;2.30;;
12768;SDS011;6448;48.916;8.990;2023-03-12T01:32:15;2.27;;;2.07;;
12768;SDS011;6448;48.916;8.990;2023-03-12T01:33:16;2.37;;;2.17;;
12768;SDS011;6448;48.916;8.990;2023-03-12T01:34:23;2.20;;;2.00;;
12768;SDS011;6448;48.916;8.990;2023-03-12T01:35:23;2.20;;;2.00;;
12768;SDS011;6448;48.916;8.990;2023-03-12T01:36:26;2.50;;;2.10;;
12768;SDS011;6448;48.916;8.990;2023-03-12T01:37:30;2.05;;;1.92;;
12768;SDS011;6448;48.916;8.990;2023-03-12T01:38:32;2.40;;;2.10;;
12768;SDS011;6448;48.916;8.990;2023-03-12T01:39:33;2.65;;;2.45;;
12768;SDS011;6448;48.916;8.990;2023-03-12T01:40:35;3.05;;;2.55;;
12768;SDS011;6448;48.916;8.990;2023-03-12T01:41:37;3.05;;;2.75;;
12768;SDS011;6448;48.916;8.990;2023-03-12T01:42:38;2.92;;;2.65;;
12768;SDS011;6448;48.916;8.990;2023-03-12T01:43:39;2.95;;;2.50;;
12768;SDS011;6448;48.916;8.990;2023-03-12T01:44:51;2.53;;;2.25;;
12768;SDS011;6448;48.916;8.990;2023-03-12T01:46:01;2.78;;;2.40;;
12768;SDS011;6448;48.916;8.990;2023-03-12T01:47:22;2.50;;;2.30;;
12768;SDS011;6448;48.916;8.990;2023-03-12T01:48:24;2.65;;;2.28;;
12768;SDS011;6448;48.916;8.990;2023-03-12T01:49:31;2.53;;;2.33;;
12768;SDS011;6448;48.916;8.990;2023-03-12T01:50:34;2.72;;;2.53;;
12768;SDS011;6448;48.916;8.990;2023-03-12T01:51:37;2.83;;;2.60;;
12768;SDS011;6448;48.916;8.990;2023-03-12T01:52:41;3.22;;;2.92;;
12768;SDS011;6448;48.916;8.990;2023-03-12T01:53:43;3.33;;;2.97;;
12768;SDS011;6448;48.916;8.990;2023-03-12T01:54:49;3.42;;;3.10;;
12768;SDS011;6448;48.916;8.990;2023-03-12T01:55:54;3.25;;;2.95;;
12768;SDS011;6448;48.916;8.990;2023-03-12T01:56:57;3.40;;;3.10;;
12768;SDS011;6448;48.916;8.990;2023-03-12T01:58:00;3.30;;;3.00;;
12768;SDS011;6448;48.916;8.990;2023-03-12T01:59:04;3.40;;;3.10;;
12768;SDS011;6448;48.916;8.990;2023-03-12T02:00:11;3.58;;;3.20;;
12768;SDS011;6448;48.916;8.990;2023-03-12T02:01:15;3.47;;;2.88;;
12768;SDS011;6448;48.916;8.990;2023-03-12T02:02:17;3.30;;;3.00;;
12768;SDS011;6448;48.916;8.990;2023-03-12T02:03:26;3.55;;;2.92;;
12768;SDS011;6448;48.916;8.990;2023-03-12T02:04:27;3.25;;;2.95;;
12768;SDS011;6448;48.916;8.990;2023-03-12T02:05:35;3.35;;;3.05;;
12768;SDS011;6448;48.916;8.990;2023-03-12T02:06:44;3.00;;;2.70;;
12768;SDS011;6448;48.916;8.990;2023-03-12T02:07:49;2.90;;;2.70;;
12768;SDS011;6448;48.916;8.990;2023-03-12T02:08:50;3.30;;;2.60;;
12768;SDS011;6448;48.916;8.990;2023-03-12T02:09:52;3.03;;;2.72;;
12768;SDS011;6448;48.916;8.990;2023-03-12T02:10:54;2.72;;;2.53;;
12768;SDS011;6448;48.916;8.990;2023-03-12T02:11:55;2.92;;;2.67;;
12768;SDS011;6448;48.916;8.990;2023-03-12T02:12:56;3.10;;;2.70;;
12768;SDS011;6448;48.916;8.990;2023-03-12T02:13:57;2.90;;;2.60;;
12768;SDS011;6448;48.916;8.990;2023-03-12T02:14:59;2.88;;;2.67;;
12768;SDS011;6448;48.916;8.990;2023-03-12T02:16:00;3.57;;;3.03;;
12768;SDS011;6448;48.916;8.990;2023-03-12T02:17:02;3.20;;;2.90;;
12768;SDS011;6448;48.916;8.990;2023-03-12T02:18:04;3.25;;;2.80;;
12768;SDS011;6448;48.916;8.990;2023-03-12T02:19:10;3.25;;;2.90;;
12768;SDS011;6448;48.916;8.990;2023-03-12T02:20:19;3.10;;;2.80;;
12768;SDS011;6448;48.916;8.990;2023-03-12T02:21:24;3.83;;;3.00;;
12768;SDS011;6448;48.916;8.990;2023-03-12T02:22:27;3.33;;;3.03;;
12768;SDS011;6448;48.916;8.990;2023-03-12T02:23:31;3.70;;;3.20;;
12768;SDS011;6448;48.916;8.990;2023-03-12T02:24:37;3.67;;;3.03;;
12768;SDS011;6448;48.916;8.990;2023-03-12T02:25:46;3.38;;;3.08;;
12768;SDS011;6448;48.916;8.990;2023-03-12T02:26:50;3.53;;;3.00;;
12768;SDS011;6448;48.916;8.990;2023-03-12T02:27:52;3.60;;;3.00;;
12768;SDS011;6448;48.916;8.990;2023-03-12T02:28:54;2.90;;;2.63;;
12768;SDS011;6448;48.916;8.990;2023-03-12T02:29:57;3.90;;;3.10;;
12768;SDS011;6448;48.916;8.990;2023-03-12T02:30:59;3.28;;;2.97;;
12768;SDS011;6448;48.916;8.990;2023-03-12T02:32:05;3.22;;;2.92;;
12768;SDS011;6448;48.916;8.990;2023-03-12T02:33:09;3.60;;;2.90;;
12768;SDS011;6448;48.916;8.990;2023-03-12T02:34:11;3.30;;;3.00;;
12768;SDS011;6448;48.916;8.990;2023-03-12T02:35:12;3.30;;;3.00;;
12768;SDS011;6448;48.916;8.990;2023-03-12T02:36:14;3.20;;;2.90;;
12768;SDS011;6448;48.916;8.990;2023-03-12T02:37:15;3.10;;;2.80;;
12768;SDS011;6448;48.916;8.990;2023-03-12T02:38:28;3.38;;;3.00;;
12768;SDS011;6448;48.916;8.990;2023-03-12T02:39:42;3.10;;;2.80;;
12768;SDS011;6448;48.916;8.990;2023-03-12T02:40:49;3.33;;;3.03;;
12768;SDS011;6448;48.916;8.990;2023-03-12T02:41:51;3.08;;;2.80;;
12768;SDS011;6448;48.916;8.990;2023-03-12T02:42:56;3.42;;;3.13;;
12768;SDS011;6448;48.916;8.990;2023-03-12T02:43:59;3.08;;;2.75;;
12768;SDS011;6448;48.916;8.990;2023-03-12T02:45:04;2.90;;;2.70;;
12768;SDS011;6448;48.916;8.990;2023-03-12T02:46:06;3.28;;;2.97;;
12768;SDS011;6448;48.916;8.990;2023-03-12T02:47:08;3.28;;;2.97;;
12768;SDS011;6448;48.916;8.990;2023-03-12T02:48:09;3.40;;;3.10;;
12768;SDS011;6448;48.916;8.990;2023-03-12T02:49:11;3.25;;;2.95;;
12768;SDS011;6448;48.916;8.990;2023-03-12T02:50:13;2.93;;;2.70;;
12768;SDS011;6448;48.916;8.990;2023-03-12T02:51:15;3.90;;;3.10;;
12768;SDS011;6448;48.916;8.990;2023-03-12T02:52:18;3.20;;;2.90;;
12768;SDS011;6448;48.916;8.990;2023-03-12T02:53:20;2.92;;;2.63;;
12768;SDS011;6448;48.916;8.990;2023-03-12T02:54:21;3.17;;;2.80;;
12768;SDS011;6448;48.916;8.990;2023-03-12T02:55:24;2.95;;;2.67;;
12768;SDS011;6448;48.916;8.990;2023-03-12T02:56:26;3.13;;;2.80;;
12768;SDS011;6448;48.916;8.990;2023-03-12T02:57:29;3.22;;;2.92;;
12768;SDS011;6448;48.916;8.990;2023-03-12T02:58:30;3.38;;;3.08;;
12768;SDS011;6448;48.916;8.990;2023-03-12T02:59:32;3.30;;;2.80;;
12768;SDS011;6448;48.916;8.990;2023-03-12T03:00:33;3.30;;;3.00;;
12768;SDS011;6448;48.916;8.990;2023-03-12T03:01:35;3.50;;;3.00;;
12768;SDS011;6448;48.916;8.990;2023-03-12T03:02:37;3.08;;;2.78;;
12768;SDS011;6448;48.916;8.990;2023-03-12T03:03:39;3.00;;;2.80;;
12768;SDS011;6448;48.916;8.990;2023-03-12T03:04:40;3.10;;;2.77;;
12768;SDS011;6448;48.916;8.990;2023-03-12T03:05:42;3.25;;;2.95;;
12768;SDS011;6448;48.916;8.990;2023-03-12T03:06:43;3.15;;;2.85;;
12768;SDS011;6448;48.916;8.990;2023-03-12T03:07:47;3.38;;;3.03;;
12768;SDS011;6448;48.916;8.990;2023-03-12T03:08:48;3.40;;;3.10;;
12768;SDS011;6448;48.916;8.990;2023-03-12T03:09:50;3.90;;;3.17;;
12768;SDS011;6448;48.916;8.990;2023-03-12T03:10:51;3.73;;;3.00;;
12768;SDS011;6448;48.916;8.990;2023-03-12T03:11:54;3.55;;;3.05;;
12768;SDS011;6448;48.916;8.990;2023-03-12T03:12:57;3.40;;;3.10;;
12768;SDS011;6448;48.916;8.990;2023-03-12T03:13:59;3.80;;;3.47;;
12768;SDS011;6448;48.916;8.990;2023-03-12T03:15:03;3.40;;;3.10;;
12768;SDS011;6448;48.916;8.990;2023-03-12T03:16:06;3.23;;;2.93;;
12768;SDS011;6448;48.916;8.990;2023-03-12T03:17:06;3.30;;;2.97;;
12768;SDS011;6448;48.916;8.990;2023-03-12T03:18:08;3.45;;;3.15;;
12768;SDS011;6448;48.916;8.990;2023-03-12T03:19:09;3.20;;;2.90;;
12768;SDS011;6448;48.916;8.990;2023-03-12T03:20:11;3.17;;;2.85;;
12768;SDS011;6448;48.916;8.990;2023-03-12T03:21:12;3.40;;;3.10;;
12768;SDS011;6448;48.916;8.990;2023-03-12T03:22:17;3.35;;;2.97;;
12768;SDS011;6448;48.916;8.990;2023-03-12T03:23:20;3.58;;;3.00;;
12768;SDS011;6448;48.916;8.990;2023-03-12T03:24:22;3.20;;;2.90;;
12768;SDS011;6448;48.916;8.990;2023-03-12T03:25:23;3.50;;;3.20;;
12768;SDS011;6448;48.916;8.990;2023-03-12T03:26:25;3.42;;;3.13;;
12768;SDS011;6448;48.916;8.990;2023-03-12T03:27:28;3.30;;;3.00;;
12768;SDS011;6448;48.916;8.990;2023-03-12T03:28:29;3.28;;;2.97;;
12768;SDS011;6448;48.916;8.990;2023-03-12T03:29:30;3.33;;;3.03;;
12768;SDS011;6448;48.916;8.990;2023-03-12T03:30:33;3.25;;;2.97;;
12768;SDS011;6448;48.916;8.990;2023-03-12T03:31:36;3.60;;;3.30;;
12768;SDS011;6448;48.916;8.990;2023-03-12T03:32:38;3.35;;;3.05;;
12768;SDS011;6448;48.916;8.990;2023-03-12T03:33:39;3.30;;;3.00;;
12768;SDS011;6448;48.916;8.990;2023-03-12T03:34:42;3.78;;;3.47;;
12768;SDS011;6448;48.916;8.990;2023-03-12T03:35:43;3.60;;;3.30;;
12768;SDS011;6448;48.916;8.990;2023-03-12T03:36:46;3.70;;;3.40;;
12768;SDS011;6448;48.916;8.990;2023-03-12T03:37:49;3.72;;;3.40;;
12768;SDS011;6448;48.916;8.990;2023-03-12T03:38:51;3.47;;;3.17;;
12768;SDS011;6448;48.916;8.990;2023-03-12T03:39:52;3.35;;;3.00;;
12768;SDS011;6448;48.916;8.990;2023-03-12T03:40:54;3.67;;;3.30;;
12768;SDS011;6448;48.916;8.990;2023-03-12T03:41:56;3.40;;;3.10;;
12768;SDS011;6448;48.916;8.990;2023-03-12T03:43:01;3.65;;;3.35;;
12768;SDS011;6448;48.916;8.990;2023-03-12T03:44:02;4.35;;;3.40;;
12768;SDS011;6448;48.916;8.990;2023-03-12T03:45:06;3.38;;;3.08;;
12768;SDS011;6448;48.916;8.990;2023-03-12T03:46:08;3.50;;;3.20;;
12768;SDS011;6448;48.916;8.990;2023-03-12T03:47:14;3.60;;;3.20;;
12768;SDS011;6448;48.916;8.990;2023-03-12T03:48:15;3.70;;;3.40;;
12768;SDS011;6448;48.916;8.990;2023-03-12T03:49:17;3.83;;;3.53;;
12768;SDS011;6448;48.916;8.990;2023-03-12T03:50:18;3.80;;;3.50;;
12768;SDS011;6448;48.916;8.990;2023-03-12T03:51:20;3.22;;;2.92;;
12768;SDS011;6448;48.916;8.990;2023-03-12T03:52:24;3.70;;;3.30;;
12768;SDS011;6448;48.916;8.990;2023-03-12T03:53:26;3.20;;;2.90;;
12768;SDS011;6448;48.916;8.990;2023-03-12T03:54:26;3.38;;;2.88;;
12768;SDS011;6448;48.916;8.990;2023-03-12T03:55:30;3.47;;;3.15;;
12768;SDS011;6448;48.916;8.990;2023-03-12T03:56:31;3.40;;;3.10;;
12768;SDS011;6448;48.916;8.990;2023-03-12T03:57:34;3.30;;;3.00;;
12768;SDS011;6448;48.916;8.990;2023-03-12T03:58:37;3.30;;;3.03;;
12768;SDS011;6448;48.916;8.990;2023-03-12T03:59:39;3.10;;;2.90;;
12768;SDS011;6448;48.916;8.990;2023-03-12T04:00:40;3.33;;;3.03;;
12768;SDS011;6448;48.916;8.990;2023-03-12T04:01:44;3.38;;;3.05;;
12768;SDS011;6448;48.916;8.990;2023-03-12T04:02:45;3.20;;;2.90;;
12768;SDS011;6448;48.916;8.990;2023-03-12T04:03:49;3.20;;;2.90;;
12768;SDS011;6448;48.916;8.990;2023-03-12T04:04:50;3.00;;;2.80;;
12768;SDS011;6448;48.916;8.990;2023-03-12T04:05:54;3.10;;;2.80;;
12768;SDS011;6448;48.916;8.990;2023-03-12T04:06:56;3.15;;;2.85;;
12768;SDS011;6448;48.916;8.990;2023-03-12T04:07:58;3.20;;;2.90;;
12768;SDS011;6448;48.916;8.990;2023-03-12T04:09:03;3.40;;;3.10;;
12768;SDS011;6448;48.916;8.990;2023-03-12T04:10:07;4.40;;;3.78;;
12768;SDS011;6448;48.916;8.990;2023-03-12T04:11:10;5.03;;;4.23;;
12768;SDS011;6448;48.916;8.990;2023-03-12T04:12:13;6.30;;;5.13;;
12768;SDS011;6448;48.916;8.990;2023-03-12T04:13:15;7.32;;;5.68;;
12768;SDS011;6448;48.916;8.990;2023-03-12T04:14:18;8.50;;;6.97;;
12768;SDS011;6448;48.916;8.990;2023-03-12T04:15:19;9.75;;;8.00;;
12768;SDS011;6448;48.916;8.990;2023-03-12T04:16:22;10.30;;;8.20;;
12768;SDS011;6448;48.916;8.990;2023-03-12T04:17:26;9.32;;;7.75;;
12768;SDS011;6448;48.916;8.990;2023-03-12T04:18:29;7.95;;;6.38;;
12768;SDS011;6448;48.916;8.990;2023-03-12T04:19:30;8.00;;;7.00;;
12768;SDS011;6448;48.916;8.990;2023-03-12T04:20:32;7.00;;;6.30;;
12768;SDS011;6448;48.916;8.990;2023-03-12T04:21:33;7.00;;;6.22;;
12768;SDS011;6448;48.916;8.990;2023-03-12T04:22:35;7.35;;;6.10;;
12768;SDS011;6448;48.916;8.990;2023-03-12T04:23:36;5.82;;;5.22;;
12768;SDS011;6448;48.916;8.990;2023-03-12T04:24:40;5.63;;;5.03;;
12768;SDS011;6448;48.916;8.990;2023-03-12T04:25:41;5.60;;;4.93;;
12768;SDS011;6448;48.916;8.990;2023-03-12T04:26:43;5.10;;;4.60;;
12768;SDS011;6448;48.916;8.990;2023-03-12T04:27:44;5.00;;;4.50;;
12768;SDS011;6448;48.916;8.990;2023-03-12T04:28:46;4.85;;;4.10;;
12768;SDS011;6448;48.916;8.990;2023-03-12T04:29:48;4.72;;;4.25;;
12768;SDS011;6448;48.916;8.990;2023-03-12T04:30:53;4.80;;;4.30;;
12768;SDS011;6448;48.916;8.990;2023-03-12T04:31:54;4.53;;;3.90;;
12768;SDS011;6448;48.916;8.990;2023-03-12T04:32:56;4.50;;;4.10;;
12768;SDS011;6448;48.916;8.990;2023-03-12T04:33:57;4.00;;;3.60;;
12768;SDS011;6448;48.916;8.990;2023-03-12T04:34:59;4.20;;;3.80;;
12768;SDS011;6448;48.916;8.990;2023-03-12T04:36:00;4.03;;;3.63;;
12768;SDS011;6448;48.916;8.990;2023-03-12T04:37:02;4.13;;;3.63;;
12768;SDS011;6448;48.916;8.990;2023-03-12T04:38:04;4.30;;;3.90;;
12768;SDS011;6448;48.916;8.990;2023-03-12T04:39:06;4.00;;;3.60;;
12768;SDS011;6448;48.916;8.990;2023-03-12T04:40:09;4.57;;;3.88;;
12768;SDS011;6448;48.916;8.990;2023-03-12T04:41:12;5.10;;;3.85;;
12768;SDS011;6448;48.916;8.990;2023-03-12T04:42:21;4.57;;;3.97;;
12768;SDS011;6448;48.916;8.990;2023-03-12T04:43:22;3.63;;;3.33;;
12768;SDS011;6448;48.916;8.990;2023-03-12T04:44:24;3.75;;;3.40;;
12768;SDS011;6448;48.916;8.990;2023-03-12T04:45:27;3.93;;;3.63;;
12768;SDS011;6448;48.916;8.990;2023-03-12T04:46:28;3.90;;;3.60;;
12768;SDS011;6448;48.916;8.990;2023-03-12T04:47:31;4.20;;;3.80;;
12768;SDS011;6448;48.916;8.990;2023-03-12T04:48:32;4.20;;;3.80;;
12768;SDS011;6448;48.916;8.990;2023-03-12T04:49:36;4.22;;;3.83;;
12768;SDS011;6448;48.916;8.990;2023-03-12T04:50:37;3.70;;;3.40;;
12768;SDS011;6448;48.916;8.990;2023-03-12T04:51:39;4.22;;;3.83;;
12768;SDS011;6448;48.916;8.990;2023-03-12T04:52:41;4.15;;;3.75;;
12768;SDS011;6448;48.916;8.990;2023-03-12T04:53:43;3.85;;;3.55;;
12768;SDS011;6448;48.916;8.990;2023-03-12T04:54:45;4.30;;;3.90;;
12768;SDS011;6448;48.916;8.990;2023-03-12T04:55:47;4.10;;;3.70;;
12768;SDS011;6448;48.916;8.990;2023-03-12T04:56:50;4.30;;;3.90;;
12768;SDS011;6448;48.916;8.990;2023-03-12T04:57:54;4.10;;;3.73;;
12768;SDS011;6448;48.916;8.990;2023-03-12T04:58:56;4.20;;;3.80;;
12768;SDS011;6448;48.916;8.990;2023-03-12T04:59:58;4.20;;;3.80;;
12768;SDS011;6448;48.916;8.990;2023-03-12T05:01:00;4.70;;;4.20;;
12768;SDS011;6448;48.916;8.990;2023-03-12T05:02:02;5.05;;;4.63;;
12768;SDS011;6448;48.916;8.990;2023-03-12T05:03:04;4.90;;;4.50;;
12768;SDS011;6448;48.916;8.990;2023-03-12T05:04:06;4.60;;;4.20;;
12768;SDS011;6448;48.916;8.990;2023-03-12T05:05:08;4.88;;;4.43;;
12768;SDS011;6448;48.916;8.990;2023-03-12T05:06:11;4.93;;;4.40;;
12768;SDS011;6448;48.916;8.990;2023-03-12T05:07:12;4.60;;;4.20;;
12768;SDS011;6448;48.916;8.990;2023-03-12T05:08:14;4.43;;;4.03;;
12768;SDS011;6448;48.916;8.990;2023-03-12T05:09:15;4.30;;;3.90;;
12768;SDS011;6448;48.916;8.990;2023-03-12T05:10:17;4.40;;;4.00;;
12768;SDS011;6448;48.916;8.990;2023-03-12T05:11:18;4.20;;;3.80;;
12768;SDS011;6448;48.916;8.990;2023-03-12T05:12:21;4.20;;;3.80;;
12768;SDS011;6448;48.916;8.990;2023-03-12T05:13:21;4.28;;;3.88;;
12768;SDS011;6448;48.916;8.990;2023-03-12T05:14:27;4.60;;;4.20;;
12768;SDS011;6448;48.916;8.990;2023-03-12T05:15:28;5.10;;;4.40;;
12768;SDS011;6448;48.916;8.990;2023-03-12T05:16:32;4.90;;;4.40;;
12768;SDS011;6448;48.916;8.990;2023-03-12T05:17:33;4.78;;;4.38;;
12768;SDS011;6448;48.916;8.990;2023-03-12T05:18:35;4.38;;;3.97;;
12768;SDS011;6448;48.916;8.990;2023-03-12T05:19:36;4.70;;;4.30;;
12768;SDS011;6448;48.916;8.990;2023-03-12T05:20:38;4.70;;;4.30;;
12768;SDS011;6448;48.916;8.990;2023-03-12T05:21:39;4.60;;;4.00;;
12768;SDS011;6448;48.916;8.990;2023-03-12T05:22:42;4.30;;;3.90;;
12768;SDS011;6448;48.916;8.990;2023-03-12T05:23:43;4.10;;;3.70;;
12768;SDS011;6448;48.916;8.990;2023-03-12T05:24:46;4.45;;;4.05;;
12768;SDS011;6448;48.916;8.990;2023-03-12T05:25:47;4.20;;;3.80;;
12768;SDS011;6448;48.916;8.990;2023-03-12T05:26:49;4.60;;;4.10;;
12768;SDS011;6448;48.916;8.990;2023-03-12T05:27:53;3.92;;;3.60;;
12768;SDS011;6448;48.916;8.990;2023-03-12T05:28:56;3.90;;;3.60;;
12768;SDS011;6448;48.916;8.990;2023-03-12T05:29:57;4.65;;;4.20;;
12768;SDS011;6448;48.916;8.990;2023-03-12T05:31:00;4.40;;;4.00;;
12768;SDS011;6448;48.916;8.990;2023-03-12T05:32:05;4.40;;;4.00;;
12768;SDS011;6448;48.916;8.990;2023-03-12T05:33:07;4.30;;;3.90;;
12768;SDS011;6448;48.916;8.990;2023-03-12T05:34:10;4.50;;;4.10;;
12768;SDS011;6448;48.916;8.990;2023-03-12T05:35:13;4.10;;;3.70;;
12768;SDS011;6448;48.916;8.990;2023-03-12T05:36:16;4.30;;;3.90;;
12768;SDS011;6448;48.916;8.990;2023-03-12T05:37:19;4.10;;;3.70;;
12768;SDS011;6448;48.916;8.990;2023-03-12T05:38:22;4.10;;;3.70;;
12768;SDS011;6448;48.916;8.990;2023-03-12T05:39:25;4.53;;;4.13;;
12768;SDS011;6448;48.916;8.990;2023-03-12T05:40:30;4.80;;;4.00;;
12768;SDS011;6448;48.916;8.990;2023-03-12T05:41:31;4.10;;;3.70;;
12768;SDS011;6448;48.916;8.990;2023-03-12T05:42:39;4.30;;;3.90;;
12768;SDS011;6448;48.916;8.990;2023-03-12T05:43:42;4.25;;;3.85;;
12768;SDS011;6448;48.916;8.990;2023-03-12T05:44:44;4.30;;;3.90;;
12768;SDS011;6448;48.916;8.990;2023-03-12T05:45:49;4.30;;;3.90;;
12768;SDS011;6448;48.916;8.990;2023-03-12T05:46:52;4.30;;;3.90;;
12768;SDS011;6448;48.916;8.990;2023-03-12T05:47:58;4.55;;;4.15;;
12768;SDS011;6448;48.916;8.990;2023-03-12T05:49:02;4.13;;;3.72;;
12768;SDS011;6448;48.916;8.990;2023-03-12T05:50:06;4.18;;;3.58;;
12768;SDS011;6448;48.916;8.990;2023-03-12T05:51:10;4.30;;;3.90;;
12768;SDS011;6448;48.916;8.990;2023-03-12T05:52:11;4.22;;;3.83;;
12768;SDS011;6448;48.916;8.990;2023-03-12T05:53:15;3.80;;;3.50;;
12768;SDS011;6448;48.916;8.990;2023-03-12T05:54:16;4.50;;;4.10;;
12768;SDS011;6448;48.916;8.990;2023-03-12T05:55:21;4.10;;;3.70;;
12768;SDS011;6448;48.916;8.990;2023-03-12T05:56:21;4.22;;;3.83;;
12768;SDS011;6448;48.916;8.990;2023-03-12T05:57:23;3.92;;;3.63;;
12768;SDS011;6448;48.916;8.990;2023-03-12T05:58:24;4.40;;;4.00;;
12768;SDS011;6448;48.916;8.990;2023-03-12T05:59:26;4.20;;;3.70;;
12768;SDS011;6448;48.916;8.990;2023-03-12T06:00:28;4.35;;;3.95;;
12768;SDS011;6448;48.916;8.990;2023-03-12T06:01:31;4.05;;;3.75;;
12768;SDS011;6448;48.916;8.990;2023-03-12T06:02:34;4.03;;;3.70;;
12768;SDS011;6448;48.916;8.990;2023-03-12T06:03:38;4.30;;;3.83;;
12768;SDS011;6448;48.916;8.990;2023-03-12T06:04:39;4.18;;;3.75;;
12768;SDS011;6448;48.916;8.990;2023-03-12T06:05:42;4.40;;;4.00;;
12768;SDS011;6448;48.916;8.990;2023-03-12T06:06:44;4.32;;;3.92;;
12768;SDS011;6448;48.916;8.990;2023-03-12T06:07:46;4.20;;;3.80;;
12768;SDS011;6448;48.916;8.990;2023-03-12T06:08:47;4.87;;;4.13;;
12768;SDS011;6448;48.916;8.990;2023-03-12T06:09:49;4.10;;;3.70;;
12768;SDS011;6448;48.916;8.990;2023-03-12T06:10:52;3.97;;;3.67;;
12768;SDS011;6448;48.916;8.990;2023-03-12T06:11:54;4.10;;;3.70;;
12768;SDS011;6448;48.916;8.990;2023-03-12T06:12:56;4.45;;;3.95;;
12768;SDS011;6448;48.916;8.990;2023-03-12T06:13:57;4.35;;;3.95;;
12768;SDS011;6448;48.916;8.990;2023-03-12T06:14:59;4.82;;;4.13;;
12768;SDS011;6448;48.916;8.990;2023-03-12T06:16:01;4.28;;;3.70;;
12768;SDS011;6448;48.916;8.990;2023-03-12T06:17:04;4.15;;;3.80;;
12768;SDS011;6448;48.916;8.990;2023-03-12T06:18:05;4.07;;;3.67;;
12768;SDS011;6448;48.916;8.990;2023-03-12T06:19:10;3.90;;;3.50;;
12768;SDS011;6448;48.916;8.990;2023-03-12T06:20:13;4.40;;;4.00;;
12768;SDS011;6448;48.916;8.990;2023-03-12T06:21:16;4.10;;;3.70;;
12768;SDS011;6448;48.916;8.990;2023-03-12T06:22:19;4.15;;;3.75;;